createdAt,value
2022-09-15T00:01:14.513Z,96899.00
2022-09-15T00:03:43.411Z,96900.00
2022-09-15T00:06:12.193Z,96903.00
2022-09-15T00:08:40.518Z,96900.00
2022-09-15T00:11:12.533Z,96890.00
2022-09-15T00:13:41.758Z,96891.00
2022-09-15T00:16:15.016Z,96887.00
2022-09-15T00:18:44.707Z,96892.00
2022-09-15T00:21:15.652Z,96889.00
2022-09-15T00:23:43.882Z,96894.00
2022-09-15T00:26:15.907Z,96888.00
2022-09-15T00:28:44.861Z,96886.00
2022-09-15T00:31:16.547Z,96883.00
2022-09-15T00:33:47.892Z,96879.00
2022-09-15T00:36:15.715Z,96885.00
2022-09-15T00:38:43.586Z,96888.00
2022-09-15T00:41:16.863Z,96881.00
2022-09-15T00:43:50.407Z,96882.00
2022-09-15T00:46:21.518Z,96881.00
2022-09-15T00:48:58.934Z,96879.00
2022-09-15T00:51:35.006Z,96871.00
2022-09-15T00:54:07.591Z,96871.00
2022-09-15T00:56:39.488Z,96870.00
2022-09-15T00:59:14.276Z,96874.00
2022-09-15T01:01:44.690Z,96875.00
2022-09-15T01:04:13.681Z,96879.00
2022-09-15T01:06:50.493Z,96874.00
2022-09-15T01:09:27.858Z,96869.00
2022-09-15T01:11:57.007Z,96866.00
2022-09-15T01:14:24.732Z,96860.00
2022-09-15T01:17:03.832Z,96870.00
2022-09-15T01:20:11.919Z,96862.00
2022-09-15T01:22:56.721Z,96867.00
2022-09-15T01:25:56.835Z,96858.00
2022-09-15T01:28:56.502Z,96857.00
2022-09-15T01:31:33.154Z,96859.00
2022-09-15T01:34:08.218Z,96861.00
2022-09-15T01:36:44.813Z,96848.00
2022-09-15T01:39:21.681Z,96852.00
2022-09-15T01:41:55.566Z,96852.00
2022-09-15T01:44:28.873Z,96847.00
2022-09-15T01:47:03.035Z,96850.00
2022-09-15T01:49:36.450Z,96853.00
2022-09-15T01:52:04.489Z,96863.00
2022-09-15T01:54:40.407Z,96857.00
2022-09-15T01:57:08.037Z,96845.00
2022-09-15T01:59:35.837Z,96846.00
2022-09-15T02:02:12.450Z,96843.00
2022-09-15T02:04:47.678Z,96849.00
2022-09-15T02:07:31.823Z,96844.00
2022-09-15T02:10:11.404Z,96841.00
2022-09-15T02:12:47.899Z,96844.00
2022-09-15T02:15:25.554Z,96838.00
2022-09-15T02:17:55.537Z,96835.00
2022-09-15T02:20:34.193Z,96832.00
2022-09-15T02:23:10.200Z,96836.00
2022-09-15T02:25:45.074Z,96830.00
2022-09-15T02:28:17.283Z,96833.00
2022-09-15T02:30:47.695Z,96832.00
2022-09-15T02:33:24.073Z,96826.00
2022-09-15T02:35:53.291Z,96833.00
2022-09-15T02:38:21.598Z,96828.00
2022-09-15T02:40:50.008Z,96829.00
2022-09-15T02:43:19.278Z,96817.00
2022-09-15T02:45:46.968Z,96814.00
2022-09-15T02:48:14.817Z,96801.00
2022-09-15T02:50:43.761Z,96800.00
2022-09-15T02:53:11.373Z,96806.00
2022-09-15T02:55:38.998Z,96808.00
2022-09-15T02:58:06.749Z,96806.00
2022-09-15T03:00:34.571Z,96800.00
2022-09-15T03:03:02.279Z,96808.00
2022-09-15T03:05:31.383Z,96808.00
2022-09-15T03:08:00.927Z,96802.00
2022-09-15T03:10:29.013Z,96803.00
2022-09-15T03:12:57.345Z,96801.00
2022-09-15T03:15:27.178Z,96797.00
2022-09-15T03:17:55.598Z,96799.00
2022-09-15T03:20:27.913Z,96798.00
2022-09-15T03:22:56.135Z,96798.00
2022-09-15T03:25:26.809Z,96803.00
2022-09-15T03:27:54.516Z,96796.00
2022-09-15T03:30:22.188Z,96796.00
2022-09-15T03:32:50.071Z,96807.00
2022-09-15T03:35:17.920Z,96799.00
2022-09-15T03:37:45.774Z,96798.00
2022-09-15T03:40:13.486Z,96795.00
2022-09-15T03:42:42.549Z,96796.00
2022-09-15T03:45:10.987Z,96801.00
2022-09-15T03:47:38.974Z,96796.00
2022-09-15T03:50:07.742Z,96796.00
2022-09-15T03:52:35.390Z,96802.00
2022-09-15T03:55:03.010Z,96798.00
2022-09-15T03:57:30.652Z,96792.00
2022-09-15T03:59:59.854Z,96798.00
2022-09-15T04:02:27.572Z,96790.00
2022-09-15T04:04:55.239Z,96791.00
2022-09-15T04:07:22.911Z,96796.00
2022-09-15T04:09:50.551Z,96780.00
2022-09-15T04:12:18.338Z,96786.00
2022-09-15T04:14:47.351Z,96780.00
2022-09-15T04:17:16.428Z,96781.00
2022-09-15T04:19:44.013Z,96780.00
2022-09-15T04:22:17.039Z,96781.00
2022-09-15T04:24:45.633Z,96774.00
2022-09-15T04:27:13.245Z,96778.00
2022-09-15T04:29:41.814Z,96779.00
2022-09-15T04:32:09.839Z,96780.00
2022-09-15T04:34:41.341Z,96777.00
2022-09-15T04:37:09.321Z,96773.00
2022-09-15T04:39:36.942Z,96777.00
2022-09-15T04:42:06.877Z,96779.00
2022-09-15T04:44:35.159Z,96780.00
2022-09-15T04:47:02.832Z,96777.00
2022-09-15T04:49:31.135Z,96773.00
2022-09-15T04:52:00.340Z,96771.00
2022-09-15T04:54:27.949Z,96770.00
2022-09-15T04:56:55.615Z,96769.00
2022-09-15T04:59:23.283Z,96777.00
2022-09-15T05:01:55.507Z,96774.00
2022-09-15T05:04:23.434Z,96770.00
2022-09-15T05:06:51.075Z,96767.00
2022-09-15T05:09:20.043Z,96771.00
2022-09-15T05:11:47.761Z,96763.00
2022-09-15T05:14:15.649Z,96768.00
2022-09-15T05:16:43.370Z,96769.00
2022-09-15T05:19:11.976Z,96768.00
2022-09-15T05:21:39.811Z,96767.00
2022-09-15T05:24:08.232Z,96773.00
2022-09-15T05:26:37.271Z,96778.00
2022-09-15T05:29:04.926Z,96775.00
2022-09-15T05:31:35.006Z,96773.00
2022-09-15T05:34:05.867Z,96786.00
2022-09-15T05:36:34.233Z,96781.00
2022-09-15T05:39:02.702Z,96777.00
2022-09-15T05:41:31.264Z,96776.00
2022-09-15T05:44:00.319Z,96776.00
2022-09-15T05:46:29.298Z,96772.00
2022-09-15T05:48:59.443Z,96781.00
2022-09-15T05:51:27.620Z,96768.00
2022-09-15T05:53:55.269Z,96773.00
2022-09-15T05:56:23.206Z,96783.00
2022-09-15T05:58:50.915Z,96779.00
2022-09-15T06:01:23.530Z,96770.00
2022-09-15T06:03:51.893Z,96769.00
2022-09-15T06:06:20.098Z,96761.00
2022-09-15T06:08:55.646Z,96777.00
2022-09-15T06:11:28.049Z,96775.00
2022-09-15T06:13:55.826Z,96779.00
2022-09-15T06:16:26.559Z,96765.00
2022-09-15T06:18:55.020Z,96772.00
2022-09-15T06:21:25.640Z,96763.00
2022-09-15T06:23:54.798Z,96764.00
2022-09-15T06:26:22.613Z,96729.00
2022-09-15T06:28:53.152Z,96766.00
2022-09-15T06:31:21.876Z,96756.00
2022-09-15T06:33:54.020Z,96768.00
2022-09-15T06:36:28.166Z,96771.00
2022-09-15T06:38:56.994Z,96764.00
2022-09-15T06:41:24.779Z,96769.00
2022-09-15T06:43:53.010Z,96791.00
2022-09-15T06:46:23.350Z,96789.00
2022-09-15T06:48:53.557Z,96795.00
2022-09-15T06:51:24.803Z,96788.00
2022-09-15T06:53:54.771Z,96787.00
2022-09-15T06:56:24.306Z,96796.00
2022-09-15T06:58:52.408Z,96808.00
2022-09-15T07:01:23.225Z,96800.00
2022-09-15T07:03:53.210Z,96813.00
2022-09-15T07:06:21.629Z,96802.00
2022-09-15T07:08:50.572Z,96819.00
2022-09-15T07:11:19.114Z,96817.00
2022-09-15T07:13:48.174Z,96843.00
2022-09-15T07:16:16.430Z,96849.00
2022-09-15T07:18:44.744Z,96856.00
2022-09-15T07:21:16.643Z,96867.00
2022-09-15T07:23:45.357Z,96876.00
2022-09-15T07:26:16.201Z,96884.00
2022-09-15T07:28:49.750Z,96884.00
2022-09-15T07:31:20.751Z,96893.00
2022-09-15T07:33:49.366Z,96891.00
2022-09-15T07:36:18.990Z,96893.00
2022-09-15T07:38:49.090Z,96903.00
2022-09-15T07:41:19.527Z,96906.00
2022-09-15T07:43:48.216Z,96907.00
2022-09-15T07:46:16.613Z,96912.00
2022-09-15T07:48:46.362Z,96913.00
2022-09-15T07:51:15.065Z,96915.00
2022-09-15T07:53:46.106Z,96921.00
2022-09-15T07:56:14.441Z,96917.00
2022-09-15T07:58:42.139Z,96913.00
2022-09-15T08:01:11.866Z,96923.00
2022-09-15T08:03:42.072Z,96924.00
2022-09-15T08:06:10.997Z,96919.00
2022-09-15T08:08:40.164Z,96924.00
2022-09-15T08:11:15.110Z,96927.00
2022-09-15T08:13:45.970Z,96937.00
2022-09-15T08:16:17.037Z,96937.00
2022-09-15T08:18:45.681Z,96943.00
2022-09-15T08:21:17.450Z,96942.00
2022-09-15T08:23:45.597Z,96949.00
2022-09-15T08:26:14.743Z,96956.00
2022-09-15T08:28:43.211Z,96948.00
2022-09-15T08:31:14.523Z,96951.00
2022-09-15T08:33:45.780Z,96947.00
2022-09-15T08:36:14.261Z,96952.00
2022-09-15T08:38:44.217Z,96961.00
2022-09-15T08:41:20.966Z,96964.00
2022-09-15T08:43:58.157Z,96973.00
2022-09-15T08:46:34.648Z,96984.00
2022-09-15T08:49:12.588Z,96988.00
2022-09-15T08:51:47.378Z,97006.00
2022-09-15T08:54:22.143Z,97000.00
2022-09-15T08:56:52.787Z,97000.00
2022-09-15T08:59:22.148Z,96999.00
2022-09-15T09:02:08.929Z,97001.00
2022-09-15T09:05:03.505Z,97008.00
2022-09-15T09:07:53.556Z,97009.00
2022-09-15T09:10:31.099Z,97006.00
2022-09-15T09:13:20.731Z,97006.00
2022-09-15T09:16:07.634Z,97003.00
2022-09-15T09:19:01.800Z,97004.00
2022-09-15T09:21:33.966Z,97001.00
2022-09-15T09:24:07.377Z,97013.00
2022-09-15T09:26:38.203Z,97010.00
2022-09-15T09:29:11.913Z,97013.00
2022-09-15T09:31:42.660Z,97018.00
2022-09-15T09:34:23.833Z,97008.00
2022-09-15T09:36:58.192Z,97016.00
2022-09-15T09:39:27.689Z,97008.00
2022-09-15T09:41:56.149Z,97020.00
2022-09-15T09:44:31.753Z,97016.00
2022-09-15T09:46:59.900Z,97024.00
2022-09-15T09:49:34.263Z,97024.00
2022-09-15T09:52:04.714Z,97023.00
2022-09-15T09:54:35.502Z,97015.00
2022-09-15T09:57:23.935Z,97015.00
2022-09-15T09:59:53.206Z,97016.00
2022-09-15T10:02:24.653Z,97014.00
2022-09-15T10:04:55.277Z,97018.00
2022-09-15T10:07:26.802Z,97019.00
2022-09-15T10:10:00.522Z,97015.00
2022-09-15T10:12:33.762Z,97015.00
2022-09-15T10:15:06.947Z,97024.00
2022-09-15T10:17:44.424Z,97028.00
2022-09-15T10:20:32.485Z,97024.00
2022-09-15T10:23:06.665Z,97020.00
2022-09-15T10:25:58.612Z,97020.00
2022-09-15T10:28:27.807Z,97014.00
2022-09-15T10:31:07.315Z,97014.00
2022-09-15T10:33:37.364Z,97020.00
2022-09-15T10:36:12.871Z,97023.00
2022-09-15T10:38:45.048Z,97016.00
2022-09-15T10:41:24.269Z,97016.00
2022-09-15T10:44:11.906Z,97010.00
2022-09-15T10:46:51.775Z,97006.00
2022-09-15T10:49:37.373Z,97014.00
2022-09-15T10:52:21.721Z,97014.00
2022-09-15T10:55:37.041Z,97017.00
2022-09-15T10:58:33.668Z,97015.00
2022-09-15T11:01:21.847Z,97021.00
2022-09-15T11:04:34.897Z,97024.00
2022-09-15T11:07:18.266Z,97022.00
2022-09-15T11:09:54.535Z,97025.00
2022-09-15T11:12:38.934Z,97018.00
2022-09-15T11:15:26.391Z,97026.00
2022-09-15T11:18:15.062Z,97029.00
2022-09-15T11:21:11.153Z,97023.00
2022-09-15T11:23:45.135Z,97024.00
2022-09-15T11:26:20.167Z,97029.00
2022-09-15T11:28:54.672Z,97039.00
2022-09-15T11:31:28.905Z,97033.00
2022-09-15T11:34:02.771Z,97033.00
2022-09-15T11:36:39.041Z,97038.00
2022-09-15T11:39:17.407Z,97043.00
2022-09-15T11:41:56.296Z,97042.00
2022-09-15T11:44:29.310Z,97037.00
2022-09-15T11:47:16.821Z,97036.00
2022-09-15T11:49:51.902Z,97029.00
2022-09-15T11:52:43.749Z,97038.00
2022-09-15T11:55:24.455Z,97042.00
2022-09-15T11:58:04.270Z,97039.00
2022-09-15T12:00:32.326Z,97041.00
2022-09-15T12:03:19.079Z,97042.00
2022-09-15T12:05:53.639Z,97044.00
2022-09-15T12:08:32.905Z,97043.00
2022-09-15T12:11:08.038Z,97053.00
2022-09-15T12:13:37.716Z,97059.00
2022-09-15T12:16:06.049Z,97060.00
2022-09-15T12:18:46.554Z,97068.00
2022-09-15T12:21:20.656Z,97066.00
2022-09-15T12:23:58.008Z,97071.00
2022-09-15T12:26:28.866Z,97063.00
2022-09-15T12:28:58.936Z,97075.00
2022-09-15T12:31:36.770Z,97071.00
2022-09-15T12:34:30.331Z,97072.00
2022-09-15T12:37:09.497Z,97066.00
2022-09-15T12:39:44.010Z,97062.00
2022-09-15T12:42:22.870Z,97067.00
2022-09-15T12:44:55.686Z,97070.00
2022-09-15T12:47:33.440Z,97070.00
2022-09-15T12:50:23.324Z,97071.00
2022-09-15T12:52:55.099Z,97071.00
2022-09-15T12:55:27.761Z,97070.00
2022-09-15T12:57:58.629Z,97068.00
2022-09-15T13:00:32.900Z,97080.00
2022-09-15T13:03:01.884Z,97084.00
2022-09-15T13:06:18.134Z,97079.00
2022-09-15T13:08:54.798Z,97081.00
2022-09-15T13:11:37.998Z,97087.00
2022-09-15T13:14:27.774Z,97086.00
2022-09-15T13:17:03.020Z,97078.00
2022-09-15T13:19:41.546Z,97074.00
2022-09-15T13:22:20.561Z,97081.00
2022-09-15T13:24:59.113Z,97080.00
2022-09-15T13:27:37.512Z,97080.00
2022-09-15T13:30:31.029Z,97074.00
2022-09-15T13:33:16.412Z,97080.00
2022-09-15T13:36:05.779Z,97074.00
2022-09-15T13:38:56.460Z,97077.00
2022-09-15T13:42:03.793Z,97065.00
2022-09-15T13:45:19.961Z,97064.00
2022-09-15T13:48:15.582Z,97070.00
2022-09-15T13:50:51.364Z,97062.00
2022-09-15T13:53:34.966Z,97059.00
2022-09-15T13:56:08.860Z,97063.00
2022-09-15T14:01:28.140Z,97060.00
2022-09-15T14:04:01.947Z,97059.00
2022-09-15T14:06:37.612Z,97064.00
2022-09-15T14:09:14.991Z,97063.00
2022-09-15T14:11:44.401Z,97070.00
2022-09-15T14:14:36.090Z,97072.00
2022-09-15T14:17:05.886Z,97078.00
2022-09-15T14:19:36.524Z,97062.00
2022-09-15T14:22:26.118Z,97070.00
2022-09-15T14:24:54.905Z,97059.00
2022-09-15T14:27:26.935Z,97066.00
2022-09-15T14:29:57.827Z,97071.00
2022-09-15T14:32:28.735Z,97077.00
2022-09-15T14:35:01.577Z,97079.00
2022-09-15T14:37:31.987Z,97087.00
2022-09-15T14:40:03.088Z,97082.00
2022-09-15T14:42:36.239Z,97081.00
2022-09-15T14:48:08.929Z,97097.00
2022-09-15T14:50:37.912Z,97091.00
2022-09-15T14:53:08.417Z,97101.00
2022-09-15T14:55:49.039Z,97097.00
2022-09-15T14:58:22.740Z,97102.00
2022-09-15T15:01:01.413Z,97100.00
2022-09-15T15:03:40.864Z,97107.00
2022-09-15T15:06:32.541Z,97111.00
2022-09-15T15:09:06.969Z,97108.00
2022-09-15T15:11:37.497Z,97103.00
2022-09-15T15:14:11.337Z,97107.00
2022-09-15T15:16:51.451Z,97103.00
2022-09-15T15:19:35.573Z,97110.00
2022-09-15T15:22:20.326Z,97110.00
2022-09-15T15:24:52.007Z,97117.00
2022-09-15T15:27:44.774Z,97105.00
2022-09-15T15:30:46.695Z,97118.00
2022-09-15T15:33:28.293Z,97112.00
2022-09-15T15:36:11.665Z,97116.00
2022-09-15T15:38:47.292Z,97119.00
2022-09-15T15:41:23.646Z,97123.00
2022-09-15T15:44:07.902Z,97116.00
2022-09-15T15:46:52.479Z,97120.00
2022-09-15T15:49:25.717Z,97122.00
2022-09-15T15:51:56.751Z,97112.00
2022-09-15T15:54:25.363Z,97126.00
2022-09-15T15:56:53.609Z,97122.00
2022-09-15T15:59:21.562Z,97118.00
2022-09-15T16:01:53.769Z,97125.00
2022-09-15T16:04:21.549Z,97120.00
2022-09-15T16:06:49.348Z,97127.00
2022-09-15T16:09:20.688Z,97133.00
2022-09-15T16:11:48.576Z,97140.00
2022-09-15T16:14:16.297Z,97145.00
2022-09-15T16:16:44.541Z,97133.00
2022-09-15T16:19:12.584Z,97142.00
2022-09-15T16:21:43.331Z,97140.00
2022-09-15T16:24:15.283Z,97142.00
2022-09-15T16:26:44.442Z,97139.00
2022-09-15T16:29:12.528Z,97143.00
2022-09-15T16:31:40.882Z,97153.00
2022-09-15T16:34:10.654Z,97157.00
2022-09-15T16:36:38.365Z,97166.00
2022-09-15T16:39:06.891Z,97170.00
2022-09-15T16:41:39.021Z,97170.00
2022-09-15T16:44:19.425Z,97167.00
2022-09-15T16:46:47.238Z,97162.00
2022-09-15T16:49:14.886Z,97160.00
2022-09-15T16:51:42.579Z,97168.00
2022-09-15T16:54:16.423Z,97170.00
2022-09-15T16:56:45.437Z,97169.00
2022-09-15T16:59:14.660Z,97175.00
2022-09-15T17:01:42.410Z,97180.00
2022-09-15T17:04:19.025Z,97182.00
2022-09-15T17:06:46.695Z,97186.00
2022-09-15T17:09:14.370Z,97184.00
2022-09-15T17:11:42.052Z,97186.00
2022-09-15T17:14:15.445Z,97195.00
2022-09-15T17:16:46.705Z,97196.00
2022-09-15T17:19:14.356Z,97207.00
2022-09-15T17:21:42.115Z,97198.00
2022-09-15T17:24:10.340Z,97209.00
2022-09-15T17:26:38.045Z,97214.00
2022-09-15T17:29:05.732Z,97212.00
2022-09-15T17:31:34.822Z,97213.00
2022-09-15T17:34:02.741Z,97219.00
2022-09-15T17:36:30.438Z,97213.00
2022-09-15T17:38:58.075Z,97214.00
2022-09-15T17:41:25.756Z,97220.00
2022-09-15T17:43:53.540Z,97221.00
2022-09-15T17:46:21.421Z,97222.00
2022-09-15T17:48:50.481Z,97224.00
2022-09-15T17:51:18.483Z,97228.00
2022-09-15T17:53:47.639Z,97230.00
2022-09-15T17:56:15.567Z,97223.00
2022-09-15T17:58:43.547Z,97233.00
2022-09-15T18:01:15.130Z,97236.00
2022-09-15T18:03:45.486Z,97226.00
2022-09-15T18:06:14.487Z,97239.00
2022-09-15T18:08:42.308Z,97240.00
2022-09-15T18:11:14.945Z,97230.00
2022-09-15T18:13:43.067Z,97237.00
2022-09-15T18:16:14.556Z,97243.00
2022-09-15T18:18:42.929Z,97245.00
2022-09-15T18:21:24.500Z,97256.00
2022-09-15T18:23:52.690Z,97257.00
2022-09-15T18:26:23.854Z,97261.00
2022-09-15T18:28:54.260Z,97265.00
2022-09-15T18:31:22.257Z,97264.00
2022-09-15T18:33:49.944Z,97269.00
2022-09-15T18:36:17.722Z,97262.00
2022-09-15T18:38:46.704Z,97270.00
2022-09-15T18:41:14.359Z,97271.00
2022-09-15T18:43:42.050Z,97271.00
2022-09-15T18:46:09.720Z,97272.00
2022-09-15T18:48:37.488Z,97273.00
2022-09-15T18:51:09.284Z,97276.00
2022-09-15T18:53:37.158Z,97274.00
2022-09-15T18:56:12.329Z,97281.00
2022-09-15T18:58:40.557Z,97283.00
2022-09-15T19:01:08.661Z,97284.00
2022-09-15T19:03:37.721Z,97285.00
2022-09-15T19:06:06.228Z,97283.00
2022-09-15T19:08:35.403Z,97292.00
2022-09-15T19:11:03.518Z,97298.00
2022-09-15T19:13:32.910Z,97303.00
2022-09-15T19:16:04.675Z,97300.00
2022-09-15T19:18:32.609Z,97302.00
2022-09-15T19:21:06.430Z,97302.00
2022-09-15T19:23:35.038Z,97297.00
2022-09-15T19:26:04.430Z,97297.00
2022-09-15T19:28:33.633Z,97298.00
2022-09-15T19:31:01.761Z,97299.00
2022-09-15T19:33:29.519Z,97299.00
2022-09-15T19:36:17.220Z,97302.00
2022-09-15T19:38:49.863Z,97306.00
2022-09-15T19:41:17.843Z,97312.00
2022-09-15T19:43:46.966Z,97306.00
2022-09-15T19:46:16.560Z,97316.00
2022-09-15T19:48:49.376Z,97312.00
2022-09-15T19:51:19.690Z,97319.00
2022-09-15T19:53:48.562Z,97314.00
2022-09-15T19:56:18.643Z,97315.00
2022-09-15T19:58:47.713Z,97306.00
2022-09-15T20:01:16.196Z,97310.00
2022-09-15T20:03:43.878Z,97318.00
2022-09-15T20:06:12.210Z,97317.00
2022-09-15T20:08:41.565Z,97311.00
2022-09-15T20:11:10.785Z,97307.00
2022-09-15T20:13:41.477Z,97312.00
2022-09-15T20:16:16.638Z,97310.00
2022-09-15T20:18:46.669Z,97311.00
2022-09-15T20:21:26.959Z,97318.00
2022-09-15T20:24:01.832Z,97315.00
2022-09-15T20:26:31.511Z,97319.00
2022-09-15T20:29:02.336Z,97317.00
2022-09-15T20:31:32.913Z,97316.00
2022-09-15T20:34:01.536Z,97322.00
2022-09-15T20:36:33.291Z,97320.00
2022-09-15T20:39:03.271Z,97328.00
2022-09-15T20:41:32.784Z,97327.00
2022-09-15T20:44:01.126Z,97327.00
2022-09-15T20:46:31.221Z,97333.00
2022-09-15T20:49:00.156Z,97327.00
2022-09-15T20:51:31.617Z,97336.00
2022-09-15T20:54:01.248Z,97334.00
2022-09-15T20:56:30.692Z,97330.00
2022-09-15T20:59:00.599Z,97338.00
2022-09-15T21:01:33.074Z,97320.00
2022-09-15T21:04:02.881Z,97326.00
2022-09-15T21:06:31.920Z,97322.00
2022-09-15T21:09:00.278Z,97316.00
2022-09-15T21:11:30.490Z,97316.00
2022-09-15T21:13:58.677Z,97315.00
2022-09-15T21:16:29.206Z,97320.00
2022-09-15T21:18:58.671Z,97318.00
2022-09-15T21:21:30.172Z,97309.00
2022-09-15T21:24:03.412Z,97311.00
2022-09-15T21:26:33.828Z,97313.00
2022-09-15T21:29:01.764Z,97314.00
2022-09-15T21:31:31.964Z,97317.00
2022-09-15T21:34:00.349Z,97324.00
2022-09-15T21:36:31.588Z,97333.00
2022-09-15T21:39:02.638Z,97332.00
2022-09-15T21:41:30.857Z,97330.00
2022-09-15T21:43:59.085Z,97330.00
2022-09-15T21:46:30.384Z,97325.00
2022-09-15T21:49:00.533Z,97326.00
2022-09-15T21:51:30.816Z,97327.00
2022-09-15T21:54:00.315Z,97324.00
2022-09-15T21:56:30.818Z,97320.00
2022-09-15T21:58:59.073Z,97321.00
2022-09-15T22:01:29.102Z,97322.00
2022-09-15T22:03:59.794Z,97323.00
2022-09-15T22:06:32.327Z,97323.00
2022-09-15T22:09:00.993Z,97328.00
2022-09-15T22:11:29.376Z,97331.00
2022-09-15T22:13:57.053Z,97333.00
2022-09-15T22:16:26.226Z,97332.00
2022-09-15T22:18:54.233Z,97322.00
2022-09-15T22:21:24.722Z,97337.00
2022-09-15T22:23:56.816Z,97346.00
2022-09-15T22:26:27.373Z,97339.00
2022-09-15T22:28:55.878Z,97333.00
2022-09-15T22:31:25.770Z,97335.00
2022-09-15T22:33:54.249Z,97340.00
2022-09-15T22:36:28.882Z,97342.00
2022-09-15T22:39:05.302Z,97340.00
2022-09-15T22:41:35.917Z,97337.00
2022-09-15T22:44:04.947Z,97336.00
2022-09-15T22:46:33.203Z,97337.00
2022-09-15T22:49:01.095Z,97333.00
2022-09-15T22:51:28.808Z,97332.00
2022-09-15T22:53:58.425Z,97326.00
2022-09-15T22:56:28.186Z,97322.00
2022-09-15T22:58:57.590Z,97328.00
2022-09-15T23:01:28.330Z,97326.00
2022-09-15T23:03:58.880Z,97322.00
2022-09-15T23:06:30.532Z,97328.00
2022-09-15T23:09:03.368Z,97327.00
2022-09-15T23:11:33.158Z,97322.00
2022-09-15T23:14:01.081Z,97319.00
2022-09-15T23:16:29.477Z,97320.00
2022-09-15T23:18:58.333Z,97316.00
2022-09-15T23:21:26.274Z,97324.00
2022-09-15T23:23:55.462Z,97323.00
2022-09-15T23:26:26.693Z,97324.00
2022-09-15T23:28:55.135Z,97323.00
2022-09-15T23:31:23.477Z,97324.00
2022-09-15T23:33:51.155Z,97330.00
2022-09-15T23:36:20.052Z,97323.00
2022-09-15T23:38:48.936Z,97317.00
2022-09-15T23:41:17.938Z,97318.00
2022-09-15T23:43:47.580Z,97324.00
2022-09-15T23:46:15.725Z,97328.00
2022-09-15T23:48:43.459Z,97331.00
2022-09-15T23:51:11.268Z,97321.00
2022-09-15T23:53:39.114Z,97321.00
2022-09-15T23:56:07.663Z,97318.00
2022-09-15T23:58:35.314Z,97326.00
